Time;durP1;ratioP1;P1;durP2;ratioP2;P2;SDS_P1;SDS_P2;PMS_P1;PMS_P2;Temp;Humidity;BMP_temperature;BMP_pressure;BME280_temperature;BME280_humidity;BME280_pressure;Samples;Min_cycle;Max_cycle;Signal;HPM_P1;HPM_P2
2021/12/26 00:00:34;;;;;;;10.93;3.83;;;;;;;-3.05;68.58;100873.06;5052502;28;20078;-86
2021/12/26 00:03:00;;;;;;;9.48;3.55;;;;;;;-3.25;68.11;100843.72;5052553;28;20053;-73
2021/12/26 00:05:27;;;;;;;9.73;4.22;;;;;;;-3.07;67.86;100872.22;5052395;28;20492;-82
2021/12/26 00:07:53;;;;;;;9.30;3.80;;;;;;;-3.09;67.51;100882.34;5052612;28;20025;-80
2021/12/26 00:10:21;;;;;;;9.65;3.70;;;;;;;-3.13;67.79;100879.88;5052403;28;20021;-81
2021/12/26 00:12:47;;;;;;;6.75;3.40;;;;;;;-3.25;68.28;100855.50;5052439;28;20109;-71
2021/12/26 00:15:13;;;;;;;9.52;3.90;;;;;;;-3.19;67.99;100855.47;5055538;28;20421;-85
2021/12/26 00:17:38;;;;;;;8.27;3.67;;;;;;;-3.03;68.13;100876.44;5056631;28;20029;-77
2021/12/26 00:20:06;;;;;;;9.55;4.05;;;;;;;-3.04;67.50;100870.53;5056596;28;20040;-79
2021/12/26 00:22:32;;;;;;;10.02;4.10;;;;;;;-3.05;67.83;100865.47;5056349;28;20024;-73
2021/12/26 00:24:57;;;;;;;9.02;4.00;;;;;;;-3.21;68.43;100835.28;5056271;28;20036;-78
2021/12/26 00:27:23;;;;;;;8.50;3.92;;;;;;;-3.04;68.12;100868.03;5056434;28;20052;-78
2021/12/26 00:29:49;;;;;;;8.98;3.97;;;;;;;-3.10;68.40;100849.53;5056462;28;20086;-79
2021/12/26 00:32:14;;;;;;;9.77;4.65;;;;;;;-3.01;68.66;100854.53;5056234;28;20033;-86
2021/12/26 00:34:40;;;;;;;9.70;4.10;;;;;;;-2.99;68.58;100855.34;5056300;28;20108;-76
2021/12/26 00:37:06;;;;;;;10.10;4.22;;;;;;;-3.01;68.28;100854.53;5056179;28;20099;-91
2021/12/26 00:39:33;;;;;;;7.07;3.60;;;;;;;-3.04;67.74;100846.97;5056106;28;20021;-86
2021/12/26 00:41:59;;;;;;;9.05;3.83;;;;;;;-3.08;67.82;100840.25;5056100;28;20025;-88
2021/12/26 00:44:24;;;;;;;8.75;3.92;;;;;;;-3.23;68.34;100809.22;5056193;28;20115;-89
2021/12/26 00:46:53;;;;;;;8.88;3.90;;;;;;;-2.98;68.08;100842.69;5056088;28;20055;-87
2021/12/26 00:49:20;;;;;;;8.35;3.40;;;;;;;-2.97;67.81;100828.38;5056050;28;20025;-89
2021/12/26 00:51:45;;;;;;;9.43;4.05;;;;;;;-2.97;68.07;100846.91;5055953;28;20487;-81
2021/12/26 00:54:11;;;;;;;11.60;4.60;;;;;;;-3.05;68.83;100833.47;5055761;28;20120;-89
2021/12/26 00:56:36;;;;;;;13.18;4.30;;;;;;;-2.93;67.89;100848.56;5056367;28;20037;-75
2021/12/26 00:59:02;;;;;;;8.88;3.72;;;;;;;-3.11;67.69;100820.06;5055864;28;20357;-84
2021/12/26 01:01:27;;;;;;;11.00;4.50;;;;;;;-2.98;68.22;100852.81;5055739;28;20032;-80
2021/12/26 01:03:52;;;;;;;10.48;4.30;;;;;;;-3.02;67.47;100852.84;5055979;28;20041;-81
2021/12/26 01:06:18;;;;;;;9.80;4.65;;;;;;;-3.06;67.49;100846.13;5055357;28;20044;-77
2021/12/26 01:08:48;;;;;;;9.65;4.10;;;;;;;-3.11;67.51;100845.31;5055835;28;20047;-84
2021/12/26 01:11:22;;;;;;;8.52;4.07;;;;;;;-3.10;68.27;100844.47;5055752;28;20040;-79
2021/12/26 01:13:50;;;;;;;7.90;4.00;;;;;;;-3.11;68.31;100853.75;5055922;28;20025;-78
2021/12/26 01:16:16;;;;;;;10.80;4.32;;;;;;;-3.08;68.88;100850.34;5055619;28;20380;-80
2021/12/26 01:18:45;;;;;;;9.82;3.83;;;;;;;-3.08;68.31;100853.72;5055527;28;20472;-86
2021/12/26 01:21:18;;;;;;;8.95;4.25;;;;;;;-3.06;68.61;100863.81;5055516;28;20070;-88
2021/12/26 01:23:47;;;;;;;9.85;4.00;;;;;;;-3.02;69.19;100860.41;5055517;28;20108;-81
2021/12/26 01:26:12;;;;;;;9.43;3.83;;;;;;;-3.02;68.94;100845.28;5054860;28;20017;-79
2021/12/26 01:28:38;;;;;;;7.63;3.70;;;;;;;-2.96;68.44;100860.38;5055465;28;20354;-85
2021/12/26 01:31:03;;;;;;;11.60;4.15;;;;;;;-3.09;68.04;100829.31;5055272;28;20028;-90
2021/12/26 01:33:29;;;;;;;7.75;3.92;;;;;;;-3.08;68.27;100841.09;5055068;28;20096;-87
2021/12/26 01:35:55;;;;;;;11.38;4.68;;;;;;;-3.11;67.77;100825.13;5055534;28;20530;-80
2021/12/26 01:38:21;;;;;;;10.27;4.30;;;;;;;-2.96;68.49;100856.16;5037434;28;20032;-81
2021/12/26 01:40:54;;;;;;;10.88;4.10;;;;;;;-3.05;68.14;100836.00;5055339;28;20911;-83
2021/12/26 01:43:24;;;;;;;9.90;4.03;;;;;;;-2.95;68.58;100857.84;5055308;28;20078;-85
2021/12/26 01:45:50;;;;;;;10.52;4.60;;;;;;;-2.94;67.96;100856.16;5055302;28;20015;-80
2021/12/26 01:48:17;;;;;;;10.20;4.43;;;;;;;-2.95;68.50;100850.28;5054859;28;20060;-76
2021/12/26 01:50:44;;;;;;;10.55;4.60;;;;;;;-3.01;68.92;100842.72;5055078;28;20021;-77
2021/12/26 01:53:10;;;;;;;10.70;4.25;;;;;;;-2.94;68.91;100841.00;5054793;28;20373;-85
2021/12/26 01:55:39;;;;;;;9.27;4.45;;;;;;;-3.00;68.68;100823.34;5054949;28;20075;-73
2021/12/26 01:58:06;;;;;;;9.48;4.18;;;;;;;-2.86;69.16;100843.44;5055022;28;20021;-87
2021/12/26 02:00:32;;;;;;;8.30;3.97;;;;;;;-3.04;68.55;100809.09;5054473;28;20120;-76
2021/12/26 02:02:57;;;;;;;8.60;4.05;;;;;;;-2.88;68.77;100830.81;5054599;28;20108;-79
2021/12/26 02:05:23;;;;;;;6.82;3.30;;;;;;;-3.06;68.61;100813.28;5054677;28;20049;-88
2021/12/26 02:07:48;;;;;;;11.60;4.05;;;;;;;-2.95;68.57;100831.72;5054637;28;20125;-90
2021/12/26 02:10:15;;;;;;;10.32;4.38;;;;;;;-3.04;68.90;100830.13;5054858;28;20156;-77
2021/12/26 02:12:41;;;;;;;9.95;4.18;;;;;;;-2.97;68.57;100841.00;5054656;28;20098;-72
2021/12/26 02:15:07;;;;;;;9.00;4.28;;;;;;;-2.98;68.61;100829.22;5054343;28;20545;-73
2021/12/26 02:17:33;;;;;;;8.27;4.05;;;;;;;-2.96;68.51;100841.00;5054678;28;20025;-82
2021/12/26 02:23:50;;;;;;;12.75;4.47;;;;;;;-2.99;68.62;100822.50;4973956;28;20077;-82
2021/12/26 02:28:51;;;;;;;10.52;4.75;;;;;;;-2.96;68.60;100823.31;4973374;28;20106;-81
2021/12/26 02:31:17;;;;;;;11.43;4.95;;;;;;;-3.00;69.05;100803.16;4973580;28;20096;-86
2021/12/26 02:33:43;;;;;;;8.60;4.72;;;;;;;-3.00;68.34;100803.16;4973104;28;20038;-77
2021/12/26 02:36:09;;;;;;;10.00;4.32;;;;;;;-2.85;68.51;100828.31;4973267;28;20067;-78
2021/12/26 02:38:35;;;;;;;9.82;4.70;;;;;;;-2.80;68.31;100826.56;4973273;28;20027;-87
2021/12/26 02:41:01;;;;;;;10.45;4.60;;;;;;;-2.81;68.16;100829.94;4973283;28;20030;-79
2021/12/26 02:43:29;;;;;;;11.02;4.90;;;;;;;-2.83;67.99;100830.81;4973140;28;20078;-86
2021/12/26 02:45:54;;;;;;;7.93;4.35;;;;;;;-2.82;68.48;100825.75;4973300;28;20093;-80
2021/12/26 02:48:21;;;;;;;8.25;4.40;;;;;;;-2.91;68.96;100806.44;4972887;28;20502;-88
2021/12/26 02:50:52;;;;;;;9.40;4.25;;;;;;;-2.81;68.68;100812.25;4973133;28;20522;-72
2021/12/26 02:53:20;;;;;;;9.52;3.90;;;;;;;-2.95;68.59;100789.63;4973169;28;20031;-83
2021/12/26 02:55:51;;;;;;;9.55;4.05;;;;;;;-2.83;68.89;100810.59;4974000;28;20034;-81
2021/12/26 02:58:17;;;;;;;12.48;4.85;;;;;;;-2.85;69.25;100808.09;5053590;28;20387;-88
2021/12/26 03:00:58;;;;;;;6.70;3.65;;;;;;;-2.83;69.48;100816.47;5053720;28;20044;-78
2021/12/26 03:03:23;;;;;;;7.97;3.72;;;;;;;-2.84;68.81;100817.34;5053576;28;20036;-78
2021/12/26 03:06:01;;;;;;;7.78;4.13;;;;;;;-2.81;69.47;100822.34;5053515;28;20049;-79
2021/12/26 03:08:26;;;;;;;10.00;4.30;;;;;;;-2.97;69.39;100803.09;5053576;28;20021;-80
2021/12/26 03:10:53;;;;;;;8.93;4.00;;;;;;;-2.87;69.13;100819.88;5053403;28;20947;-75
2021/12/26 03:13:19;;;;;;;7.57;4.13;;;;;;;-3.07;69.73;100787.19;5053499;28;20384;-90
2021/12/26 03:15:44;;;;;;;9.10;4.18;;;;;;;-2.89;68.83;100822.41;5053368;28;20021;-81
2021/12/26 03:18:10;;;;;;;8.23;3.78;;;;;;;-2.95;68.19;100825.00;5053320;28;20040;-74
2021/12/26 03:20:39;;;;;;;7.63;4.38;;;;;;;-2.96;68.57;100809.84;5053225;28;20036;-79
2021/12/26 03:23:06;;;;;;;9.48;4.65;;;;;;;-3.07;68.72;100796.44;5053333;28;20032;-82
2021/12/26 03:25:33;;;;;;;7.65;3.97;;;;;;;-2.97;69.37;100805.63;5052958;28;20045;-77
2021/12/26 03:27:59;;;;;;;9.32;4.35;;;;;;;-3.00;69.32;100801.44;5053162;28;20472;-80
2021/12/26 03:30:28;;;;;;;8.00;4.20;;;;;;;-2.99;68.88;100799.75;5053231;28;20477;-85
2021/12/26 03:32:56;;;;;;;7.35;3.53;;;;;;;-3.03;68.71;100795.59;5053167;28;20380;-79
2021/12/26 03:35:24;;;;;;;7.07;3.72;;;;;;;-3.07;68.68;100787.19;5053231;28;20268;-78
2021/12/26 03:37:49;;;;;;;8.10;3.95;;;;;;;-3.17;69.27;100785.59;5052922;28;20540;-83
2021/12/26 03:40:15;;;;;;;9.10;4.40;;;;;;;-3.19;68.81;100783.06;5052699;28;20119;-77
2021/12/26 03:42:40;;;;;;;9.15;4.20;;;;;;;-3.21;69.33;100792.34;5053082;28;20032;-81
2021/12/26 03:45:08;;;;;;;9.60;4.13;;;;;;;-3.20;69.77;100790.66;5052962;28;20021;-81
2021/12/26 03:47:34;;;;;;;8.35;3.97;;;;;;;-3.25;70.32;100780.56;5053090;28;20438;-82
2021/12/26 03:50:01;;;;;;;8.93;4.13;;;;;;;-3.22;69.61;100790.69;5052221;28;20033;-79
2021/12/26 03:52:26;;;;;;;8.20;3.97;;;;;;;-3.26;69.11;100796.59;5053070;28;20025;-73
2021/12/26 03:54:53;;;;;;;7.28;3.97;;;;;;;-3.38;69.40;100773.94;5052765;28;20104;-86
2021/12/26 03:57:19;;;;;;;8.57;4.13;;;;;;;-3.31;69.25;100788.22;5052789;28;20032;-80
2021/12/26 03:59:44;;;;;;;9.15;3.97;;;;;;;-3.34;70.54;100774.75;5052788;28;20028;-78
2021/12/26 04:02:11;;;;;;;9.40;4.07;;;;;;;-3.28;69.73;100785.66;5052755;28;20050;-79
2021/12/26 04:04:37;;;;;;;7.55;3.92;;;;;;;-3.42;69.95;100758.84;5052473;28;20040;-78
2021/12/26 04:07:03;;;;;;;10.35;4.75;;;;;;;-3.26;69.64;100786.47;5052492;28;20037;-85
2021/12/26 04:09:28;;;;;;;8.43;4.07;;;;;;;-3.37;70.17;100762.16;5052625;28;20024;-87
2021/12/26 04:11:53;;;;;;;8.25;4.20;;;;;;;-3.40;70.33;100762.19;5052830;28;20353;-79
2021/12/26 04:14:20;;;;;;;9.50;4.93;;;;;;;-3.36;69.78;100773.94;5052723;28;20085;-84
2021/12/26 04:16:45;;;;;;;12.02;4.90;;;;;;;-3.44;70.36;100774.00;5052859;28;20021;-85
2021/12/26 04:19:11;;;;;;;11.68;5.00;;;;;;;-3.53;70.86;100779.94;5052497;28;20028;-79
2021/12/26 04:21:36;;;;;;;11.40;4.78;;;;;;;-3.59;71.43;100779.13;5052467;28;20017;-80
2021/12/26 04:24:03;;;;;;;9.55;4.57;;;;;;;-3.65;71.24;100776.63;5052432;28;20021;-82
2021/12/26 04:26:28;;;;;;;9.30;4.93;;;;;;;-3.69;71.78;100770.78;5052419;28;20094;-83
2021/12/26 04:28:54;;;;;;;8.00;4.15;;;;;;;-3.73;71.78;100770.81;5052554;28;20484;-75
2021/12/26 04:31:20;;;;;;;9.65;3.95;;;;;;;-3.90;71.95;100749.03;5052657;28;20435;-75
2021/12/26 04:33:46;;;;;;;10.57;4.63;;;;;;;-3.87;72.15;100759.09;5052175;28;20052;-82
2021/12/26 04:36:13;;;;;;;8.82;4.55;;;;;;;-3.91;72.71;100764.19;5052367;28;20048;-83
2021/12/26 04:38:39;;;;;;;10.77;5.10;;;;;;;-4.16;73.02;100728.13;5052337;28;20024;-80
2021/12/26 04:41:05;;;;;;;9.85;4.68;;;;;;;-4.01;72.91;100760.88;5051999;28;20379;-77
2021/12/26 04:43:34;;;;;;;11.30;4.82;;;;;;;-3.97;73.82;100777.66;5052544;28;20021;-78
2021/12/26 04:46:02;;;;;;;9.80;4.47;;;;;;;-4.04;74.03;100768.41;5052257;28;20028;-87
2021/12/26 04:48:27;;;;;;;8.82;4.38;;;;;;;-4.17;73.35;100744.13;5052312;28;20114;-73
2021/12/26 04:50:53;;;;;;;11.35;4.60;;;;;;;-4.18;74.28;100747.47;5052015;28;20063;-82
2021/12/26 04:53:18;;;;;;;8.30;4.40;;;;;;;-4.08;74.08;100766.78;5052238;28;20025;-84
2021/12/26 04:55:44;;;;;;;9.18;4.43;;;;;;;-4.13;74.13;100769.31;5052094;28;20435;-74
2021/12/26 04:58:09;;;;;;;17.67;5.00;;;;;;;-4.16;74.50;100764.28;5052126;28;20021;-79
2021/12/26 05:00:34;;;;;;;9.55;4.05;;;;;;;-4.17;74.95;100771.84;5052348;28;20103;-76
2021/12/26 05:03:07;;;;;;;8.25;4.18;;;;;;;-4.21;74.23;100771.03;5055698;28;20107;-77
2021/12/26 05:05:32;;;;;;;8.15;4.10;;;;;;;-4.20;74.01;100767.66;5055727;28;20439;-80
2021/12/26 05:07:58;;;;;;;8.77;4.72;;;;;;;-4.31;74.42;100748.38;5055845;28;20041;-71
2021/12/26 05:10:25;;;;;;;8.98;4.38;;;;;;;-4.27;74.54;100760.97;5055792;28;20032;-76
2021/12/26 05:12:51;;;;;;;8.45;4.18;;;;;;;-4.31;74.33;100761.81;5055885;28;20040;-79
2021/12/26 05:15:16;;;;;;;7.43;3.75;;;;;;;-4.37;74.65;100759.31;5055795;28;20354;-77
2021/12/26 05:17:42;;;;;;;8.63;4.13;;;;;;;-4.35;75.29;100755.09;5055533;28;20379;-75
2021/12/26 05:20:10;;;;;;;10.52;4.18;;;;;;;-4.37;74.97;100756.78;5055441;28;20087;-87
2021/12/26 05:22:35;;;;;;;8.95;4.07;;;;;;;-4.41;75.42;100750.09;5055627;28;20040;-72
2021/12/26 05:25:00;;;;;;;9.65;4.32;;;;;;;-4.59;75.07;100723.25;5055539;28;20087;-77
2021/12/26 05:27:26;;;;;;;9.60;4.70;;;;;;;-4.57;74.93;100728.28;5055464;28;20032;-71
2021/12/26 05:29:51;;;;;;;7.47;3.92;;;;;;;-4.60;75.74;100728.31;5055511;28;20045;-83
2021/12/26 05:32:17;;;;;;;9.18;4.40;;;;;;;-4.44;75.45;100763.53;5055390;28;20496;-87
2021/12/26 05:34:42;;;;;;;9.32;4.50;;;;;;;-4.46;76.03;100744.22;5055239;28;20391;-78
2021/12/26 05:37:07;;;;;;;10.27;4.32;;;;;;;-4.47;75.88;100745.91;5055360;28;20025;-78
2021/12/26 05:39:33;;;;;;;8.40;4.28;;;;;;;-4.57;75.57;100736.69;5055192;28;20361;-82
2021/12/26 05:41:58;;;;;;;9.50;4.22;;;;;;;-4.47;75.05;100745.91;5055158;28;20032;-78
2021/12/26 05:44:24;;;;;;;8.80;4.28;;;;;;;-4.56;75.49;100725.75;5055393;28;20021;-73
2021/12/26 05:46:49;;;;;;;9.30;4.82;;;;;;;-4.51;75.36;100726.59;5055191;28;20124;-76
2021/12/26 05:49:14;;;;;;;11.02;4.90;;;;;;;-4.49;75.94;100735.00;5055252;28;20029;-76
2021/12/26 05:51:40;;;;;;;9.23;5.03;;;;;;;-4.54;75.33;100720.72;5054744;28;20107;-84
2021/12/26 05:54:06;;;;;;;10.70;4.95;;;;;;;-4.54;76.18;100725.75;5054994;28;20021;-85
2021/12/26 05:56:31;;;;;;;8.98;4.75;;;;;;;-4.55;76.09;100724.91;5055046;28;20029;-80
2021/12/26 05:58:57;;;;;;;10.60;5.07;;;;;;;-4.66;75.86;100711.50;5054998;28;20033;-72
2021/12/26 06:01:22;;;;;;;11.07;4.88;;;;;;;-4.54;76.23;100729.09;5036334;28;20052;-75
2021/12/26 06:03:47;;;;;;;11.23;5.93;;;;;;;-4.56;75.75;100725.75;5054940;28;20025;-85
2021/12/26 06:06:13;;;;;;;10.80;4.80;;;;;;;-4.55;76.83;100724.06;5054446;28;20048;-84
2021/12/26 06:08:38;;;;;;;12.13;5.30;;;;;;;-4.62;76.14;100718.25;5055008;28;20129;-78
2021/12/26 06:11:03;;;;;;;8.38;4.32;;;;;;;-4.60;75.99;100729.16;5054903;28;20491;-77
2021/12/26 06:13:31;;;;;;;9.93;5.25;;;;;;;-4.66;76.29;100714.88;5054176;28;20056;-83
2021/12/26 06:15:56;;;;;;;9.73;4.38;;;;;;;-4.65;76.47;100724.09;5054641;28;20017;-75
2021/12/26 06:18:22;;;;;;;10.80;5.38;;;;;;;-4.61;76.36;100724.94;5054707;28;20052;-73
2021/12/26 06:20:47;;;;;;;10.18;5.05;;;;;;;-4.60;76.72;100731.66;5054392;28;20040;-77
2021/12/26 06:23:13;;;;;;;9.07;4.45;;;;;;;-4.63;76.50;100724.94;5054572;28;20112;-82
2021/12/26 06:25:39;;;;;;;8.82;4.50;;;;;;;-4.97;76.87;100673.81;5054399;28;20112;-79
2021/12/26 06:28:04;;;;;;;9.52;4.53;;;;;;;-4.64;76.23;100724.94;5054320;28;20053;-75
2021/12/26 06:30:30;;;;;;;11.57;5.53;;;;;;;-4.73;76.08;100703.13;5054471;28;20490;-82
2021/12/26 06:32:55;;;;;;;9.70;5.05;;;;;;;-4.93;76.00;100677.97;5054656;28;20033;-73
2021/12/26 06:35:21;;;;;;;9.60;4.25;;;;;;;-4.68;76.50;100713.19;5054246;28;20037;-73
2021/12/26 06:37:46;;;;;;;10.82;5.25;;;;;;;-4.68;77.23;100718.25;5054052;28;20104;-76
2021/12/26 06:40:12;;;;;;;12.07;4.78;;;;;;;-4.71;76.52;100714.06;5054062;28;20464;-72
2021/12/26 06:42:42;;;;;;;11.15;5.30;;;;;;;-4.84;76.85;100697.28;5053933;28;20472;-82
2021/12/26 06:45:15;;;;;;;12.15;5.03;;;;;;;-4.68;76.39;100730.84;5054006;28;20021;-80
2021/12/26 06:47:42;;;;;;;10.85;5.30;;;;;;;-4.69;76.33;100730.00;5054371;28;20025;-77
2021/12/26 06:50:08;;;;;;;10.13;4.90;;;;;;;-4.77;77.27;100718.25;5054297;28;20101;-76
2021/12/26 06:52:34;;;;;;;11.00;5.40;;;;;;;-4.73;77.03;100725.78;5054238;28;20056;-71
2021/12/26 06:54:59;;;;;;;10.38;4.75;;;;;;;-4.84;77.09;100704.00;5054040;28;20495;-73
2021/12/26 06:57:25;;;;;;;8.90;4.68;;;;;;;-4.73;76.78;100718.25;5054021;28;20403;-72
2021/12/26 06:59:51;;;;;;;11.07;5.25;;;;;;;-4.70;77.61;100727.50;5053962;28;20491;-80
2021/12/26 07:02:16;;;;;;;10.13;5.38;;;;;;;-4.86;77.24;100701.50;5054033;28;20028;-75
2021/12/26 07:04:41;;;;;;;11.18;5.28;;;;;;;-4.67;77.05;100723.28;5053802;28;20024;-75
2021/12/26 07:07:07;;;;;;;14.55;5.70;;;;;;;-4.67;77.54;100725.78;5053471;28;20049;-74
2021/12/26 07:09:32;;;;;;;12.70;5.72;;;;;;;-4.69;77.40;100719.94;5053770;28;20047;-75
2021/12/26 07:11:57;;;;;;;12.30;5.32;;;;;;;-4.71;77.58;100718.25;5054043;28;20036;-71
2021/12/26 07:14:23;;;;;;;12.38;5.57;;;;;;;-4.77;77.53;100716.59;5053656;28;20021;-74
2021/12/26 07:16:48;;;;;;;11.20;5.20;;;;;;;-4.67;77.93;100730.84;5053714;28;20025;-72
2021/12/26 07:19:14;;;;;;;8.80;5.10;;;;;;;-4.66;77.56;100734.19;5053749;28;20012;-74
2021/12/26 07:21:40;;;;;;;10.25;5.03;;;;;;;-4.80;77.55;100698.97;5053292;28;20464;-79
2021/12/26 07:24:06;;;;;;;11.15;5.47;;;;;;;-4.66;78.02;100717.38;5052107;28;20055;-80
2021/12/26 07:26:32;;;;;;;11.07;5.70;;;;;;;-4.70;77.36;100713.22;5054135;28;20017;-70
2021/12/26 07:28:57;;;;;;;11.85;6.25;;;;;;;-4.68;77.49;100719.09;5053917;28;20067;-73
2021/12/26 07:31:23;;;;;;;10.60;5.20;;;;;;;-4.68;78.00;100714.03;5053356;28;20025;-77
2021/12/26 07:33:48;;;;;;;11.63;5.40;;;;;;;-4.91;77.81;100681.38;5053465;28;20379;-75
2021/12/26 07:36:14;;;;;;;10.65;5.22;;;;;;;-4.67;78.21;100715.72;5053601;28;20039;-73
2021/12/26 07:38:39;;;;;;;10.80;4.80;;;;;;;-4.65;77.38;100718.22;5053148;28;20487;-74
2021/12/26 07:41:04;;;;;;;10.70;5.20;;;;;;;-4.72;78.26;100703.97;5053015;28;20021;-80
2021/12/26 07:43:30;;;;;;;10.55;5.22;;;;;;;-4.58;77.45;100717.38;5053436;28;20025;-77
2021/12/26 07:45:55;;;;;;;10.98;5.15;;;;;;;-4.76;77.84;100694.75;5053197;28;20759;-85
2021/12/26 07:48:21;;;;;;;9.23;4.75;;;;;;;-4.56;77.89;100717.38;5053236;28;20021;-78
2021/12/26 07:50:46;;;;;;;12.48;5.72;;;;;;;-4.54;77.99;100715.66;5053359;28;20032;-74
2021/12/26 07:53:12;;;;;;;13.35;5.40;;;;;;;-4.53;78.07;100717.34;5052996;28;20428;-73
2021/12/26 07:55:39;;;;;;;10.13;4.80;;;;;;;-4.57;78.03;100710.66;5052961;28;20051;-74
2021/12/26 07:58:04;;;;;;;10.25;5.10;;;;;;;-4.51;78.21;100718.22;5052975;28;20024;-83
2021/12/26 08:00:30;;;;;;;10.52;5.03;;;;;;;-4.51;78.19;100720.72;5052771;28;20536;-77
2021/12/26 08:02:56;;;;;;;8.95;5.22;;;;;;;-4.50;78.32;100715.69;5052946;28;20426;-71
2021/12/26 08:05:22;;;;;;;12.50;5.78;;;;;;;-4.55;77.87;100711.47;5052976;28;20075;-72
2021/12/26 08:07:47;;;;;;;9.13;4.65;;;;;;;-4.50;77.81;100722.41;5053069;28;20052;-77
2021/12/26 08:10:13;;;;;;;12.85;5.18;;;;;;;-4.45;78.12;100725.72;5053564;28;20033;-79
2021/12/26 08:12:38;;;;;;;12.23;5.65;;;;;;;-4.48;78.05;100720.72;5053918;28;20094;-89
2021/12/26 08:15:05;;;;;;;12.02;4.60;;;;;;;-4.42;77.98;100731.63;5053932;28;20434;-82
2021/12/26 08:17:31;;;;;;;12.18;5.30;;;;;;;-4.39;78.13;100735.78;5052899;28;20036;-78
2021/12/26 08:19:57;;;;;;;11.48;5.63;;;;;;;-4.41;78.73;100725.72;5052601;28;20031;-81
2021/12/26 08:22:23;;;;;;;12.82;5.65;;;;;;;-4.35;78.55;100734.94;5052840;28;20025;-73
2021/12/26 08:24:48;;;;;;;12.18;5.30;;;;;;;-4.35;78.70;100728.19;5052753;28;20534;-75
2021/12/26 08:27:14;;;;;;;10.68;5.32;;;;;;;-4.43;78.42;100719.00;5053004;28;20028;-83
2021/12/26 08:29:40;;;;;;;10.65;5.50;;;;;;;-4.27;78.92;100732.38;5052777;28;20037;-74
2021/12/26 08:32:06;;;;;;;12.88;5.65;;;;;;;-4.24;79.11;100740.75;5052908;28;20079;-85
2021/12/26 08:34:32;;;;;;;11.13;5.93;;;;;;;-4.19;79.66;100731.50;5053126;28;20562;-80
2021/12/26 08:37:01;;;;;;;10.15;5.28;;;;;;;-4.20;79.07;100727.31;5038750;28;20033;-77
2021/12/26 08:39:35;;;;;;;12.20;5.47;;;;;;;-4.02;78.16;100735.66;5056953;28;20446;-82
2021/12/26 08:42:02;;;;;;;10.73;5.80;;;;;;;-3.91;78.35;100737.28;5056726;28;20025;-75
2021/12/26 08:44:27;;;;;;;13.18;6.25;;;;;;;-3.84;78.19;100723.75;5057066;28;20017;-80
2021/12/26 08:46:53;;;;;;;12.88;5.60;;;;;;;-3.69;78.41;100740.50;5056417;28;20537;-82
2021/12/26 08:49:19;;;;;;;12.27;5.82;;;;;;;-3.60;78.29;100735.41;5056299;28;20025;-80
2021/12/26 08:51:45;;;;;;;10.07;5.65;;;;;;;-3.61;77.12;100726.16;5056247;28;20384;-82
2021/12/26 08:54:11;;;;;;;11.02;5.68;;;;;;;-3.44;76.90;100731.09;5055823;28;20472;-78
2021/12/26 08:56:37;;;;;;;12.65;6.00;;;;;;;-3.40;76.77;100726.84;5056095;28;20021;-77
2021/12/26 08:59:03;;;;;;;11.70;5.82;;;;;;;-3.26;76.37;100735.97;5056193;28;20025;-76
2021/12/26 09:01:28;;;;;;;11.10;5.68;;;;;;;-3.20;76.42;100733.41;5055751;28;20033;-75
2021/12/26 09:03:54;;;;;;;10.60;5.55;;;;;;;-3.11;76.64;100739.25;5055868;28;20487;-75
2021/12/26 09:06:19;;;;;;;13.35;5.70;;;;;;;-3.26;76.51;100699.78;5056037;28;20456;-74
2021/12/26 09:08:45;;;;;;;11.20;5.93;;;;;;;-2.96;76.64;100729.00;5055860;28;20427;-75
2021/12/26 09:11:10;;;;;;;11.02;5.82;;;;;;;-3.23;75.73;100674.53;5056191;28;20027;-78
2021/12/26 09:13:35;;;;;;;12.55;5.55;;;;;;;-2.83;75.74;100722.16;5056004;28;20477;-81
2021/12/26 09:16:02;;;;;;;10.98;5.90;;;;;;;-2.89;74.99;100713.78;5055752;28;20057;-75
2021/12/26 09:18:27;;;;;;;12.52;5.35;;;;;;;-2.75;75.46;100727.94;5056005;28;20457;-78
2021/12/26 09:20:52;;;;;;;11.80;6.10;;;;;;;-2.69;74.81;100726.19;5055894;28;20043;-82
2021/12/26 09:23:18;;;;;;;12.48;5.50;;;;;;;-2.65;74.86;100730.38;5055761;28;20063;-81
2021/12/26 09:25:43;;;;;;;12.55;5.93;;;;;;;-2.65;74.91;100721.97;5055657;28;20032;-81
2021/12/26 09:28:09;;;;;;;13.75;6.32;;;;;;;-2.61;75.66;100728.66;5055726;28;20036;-77
2021/12/26 09:30:35;;;;;;;11.10;6.25;;;;;;;-2.51;75.28;100732.75;5055644;28;20033;-84
2021/12/26 09:33:01;;;;;;;12.50;6.50;;;;;;;-2.54;75.16;100709.22;5055845;28;20021;-84
2021/12/26 09:35:26;;;;;;;13.23;6.55;;;;;;;-2.47;74.59;100716.69;5055498;28;20368;-85
2021/12/26 09:37:52;;;;;;;14.23;6.60;;;;;;;-2.37;74.21;100730.06;5055404;28;20103;-84
2021/12/26 09:40:17;;;;;;;16.95;6.95;;;;;;;-2.45;74.58;100704.88;5055358;28;20104;-82
2021/12/26 09:42:44;;;;;;;12.55;7.05;;;;;;;-2.28;74.67;100719.84;5055380;28;20484;-79
2021/12/26 09:45:11;;;;;;;12.15;6.75;;;;;;;-2.31;74.34;100710.59;5055229;28;20056;-83
2021/12/26 09:47:37;;;;;;;14.90;7.45;;;;;;;-2.25;74.70;100716.47;5054475;28;20025;-85
2021/12/26 09:50:05;;;;;;;13.30;7.03;;;;;;;-2.17;74.64;100728.13;5056903;28;20083;-89
2021/12/26 09:52:30;;;;;;;12.65;6.20;;;;;;;-2.12;74.61;100713.75;5057356;28;20021;-85
2021/12/26 09:54:56;;;;;;;14.40;6.82;;;;;;;-2.14;74.66;100702.81;5056580;28;20028;-87
2021/12/26 09:57:23;;;;;;;14.77;6.93;;;;;;;-2.17;74.58;100687.66;5055550;28;20021;-85
2021/12/26 09:59:49;;;;;;;14.35;6.78;;;;;;;-1.97;75.15;100719.44;5055957;28;20017;-77
2021/12/26 10:02:16;;;;;;;11.32;6.65;;;;;;;-1.90;74.73;100704.16;5056962;28;20021;-84
2021/12/26 10:04:44;;;;;;;13.88;7.65;;;;;;;-1.94;75.02;100692.44;5058305;28;20029;-83
2021/12/26 10:07:14;;;;;;;14.00;7.65;;;;;;;-1.96;74.56;100686.56;5056583;28;20563;-92
2021/12/26 10:09:42;;;;;;;13.80;7.70;;;;;;;-1.75;74.99;100711.56;5056393;28;20385;-79
2021/12/26 10:12:12;;;;;;;15.63;7.43;;;;;;;-1.99;74.49;100652.84;5056384;28;20100;-76
2021/12/26 10:14:38;;;;;;;14.60;7.13;;;;;;;-1.65;75.08;100697.06;5056676;28;20107;-90
2021/12/26 10:17:17;;;;;;;14.68;8.93;;;;;;;-1.61;75.02;100686.03;5056532;28;20025;-79
2021/12/26 10:19:45;;;;;;;13.20;7.40;;;;;;;-1.43;74.90;100681.53;5057763;28;20033;-82
2021/12/26 10:22:12;;;;;;;14.68;7.18;;;;;;;-1.45;74.69;100666.38;5056274;28;20021;-90
2021/12/26 10:24:43;;;;;;;15.27;8.27;;;;;;;-1.54;74.71;100638.66;5056400;28;20051;-85
2021/12/26 10:27:10;;;;;;;12.90;7.25;;;;;;;-1.24;74.53;100668.53;5056590;28;20017;-92
2021/12/26 10:29:43;;;;;;;14.55;8.25;;;;;;;-1.17;74.16;100675.19;5056454;28;20035;-87
2021/12/26 10:32:11;;;;;;;15.68;7.45;;;;;;;-1.15;74.06;100670.09;5059843;28;20040;-90
2021/12/26 10:34:43;;;;;;;14.48;7.78;;;;;;;-1.17;74.18;100661.69;5056114;28;20376;-88
2021/12/26 10:37:13;;;;;;;15.18;7.80;;;;;;;-1.19;74.46;100660.84;5057048;28;20028;-90
2021/12/26 10:39:48;;;;;;;15.30;8.18;;;;;;;-1.07;74.76;100658.13;5054577;28;20075;-93
2021/12/26 10:42:20;;;;;;;13.63;7.55;;;;;;;-1.01;74.35;100655.47;5054927;28;20127;-91
2021/12/26 10:44:52;;;;;;;16.27;7.82;;;;;;;-1.10;74.12;100626.91;5057253;28;20032;-93
2021/12/26 10:47:21;;;;;;;14.00;7.63;;;;;;;-0.99;73.91;100651.19;5056853;28;20103;-89
2021/12/26 10:49:51;;;;;;;16.73;8.73;;;;;;;-0.98;74.70;100647.00;5055879;28;20089;-89
2021/12/26 10:52:26;;;;;;;16.57;8.10;;;;;;;-0.82;74.65;100644.97;5055442;28;20154;-94
2021/12/26 10:54:55;;;;;;;16.33;8.75;;;;;;;-0.79;74.53;100639.84;5056747;28;20021;-85
2021/12/26 10:57:26;;;;;;;14.13;7.97;;;;;;;-0.74;74.84;100640.59;5056517;28;20036;-82
2021/12/26 11:00:03;;;;;;;17.70;9.38;;;;;;;-0.76;74.90;100630.50;5053631;28;20053;-91
2021/12/26 11:02:31;;;;;;;17.48;9.85;;;;;;;-0.61;74.46;100657.25;5055285;28;20023;-89
2021/12/26 11:05:02;;;;;;;18.33;9.25;;;;;;;-0.53;74.26;100652.03;5054489;28;20017;-90
2021/12/26 11:07:28;;;;;;;16.33;8.85;;;;;;;-0.57;74.56;100635.22;5053831;28;20049;-72
2021/12/26 11:10:28;;;;;;;17.25;9.18;;;;;;;-0.48;74.65;100646.00;5053051;28;20036;-71
2021/12/26 11:12:56;;;;;;;18.48;8.98;;;;;;;-0.48;74.25;100640.94;4972980;28;20455;-73
2021/12/26 11:15:25;;;;;;;16.60;8.90;;;;;;;-0.45;74.32;100634.94;4973538;28;20070;-75
2021/12/26 11:17:56;;;;;;;15.05;8.65;;;;;;;-0.44;74.45;100629.84;4973223;28;20425;-82
2021/12/26 11:20:29;;;;;;;16.83;8.60;;;;;;;-0.45;73.81;100627.34;4972432;28;20062;-80
2021/12/26 11:22:55;;;;;;;18.65;9.05;;;;;;;-0.47;74.67;100614.69;4972217;28;20038;-73